Date,TemperatureHighF,TemperatureAvgF,TemperatureLowF,DewpointHighF,DewpointAvgF,DewpointLowF,HumidityHigh,HumidityAvg,HumidityLow,PressureMaxIn,PressureMinIn,WindSpeedMaxMPH,WindSpeedAvgMPH,GustSpeedMaxMPH,PrecipitationSumIn
2013-1-1,47,46,42,38,25,20,75,45,38,30.11,29.94,15,1,15,0.16
2013-1-2,45,41,37,40,30,20,86,66,40,30.23,30.00,10,1,10,0.28
2013-1-3,41,36,32,31,19,13,77,51,39,30.26,30.20,6,0,6,0.00
2013-1-4,47,37,29,25,17,9,74,45,37,30.32,30.20,17,3,17,0.00
2013-1-5,51,39,28,26,16,8,42,39,37,30.41,30.26,10,2,10,0.00
2013-1-6,53,44,39,27,21,17,49,40,36,30.26,30.09,9,1,9,0.00
2013-1-7,50,40,33,25,18,14,47,40,37,30.47,30.20,12,1,12,0.00
2013-1-8,51,38,28,28,20,13,69,47,35,30.50,30.41,8,0,8,0.00
2013-1-9,69,53,37,38,31,23,74,45,33,30.44,30.35,14,2,14,0.00
2013-1-10,60,50,42,44,31,18,82,50,35,30.59,30.41,10,1,10,0.00
2013-1-11,50,44,38,46,34,16,92,68,39,30.50,30.17,8,1,8,0.12
2013-1-12,66,56,47,63,50,42,95,84,43,30.20,30.14,6,0,6,0.00
2013-1-13,73,62,57,66,49,37,96,68,32,30.17,30.09,9,2,9,0.00
2013-1-14,65,60,47,59,47,40,86,64,40,30.26,30.11,14,3,14,1.46
2013-1-15,47,43,41,43,40,38,95,89,81,30.32,30.11,13,2,13,0.20
2013-1-16,48,44,40,47,43,38,97,96,95,30.14,30.00,11,1,11,0.39
2013-1-17,49,44,34,48,42,28,97,91,70,30.14,30.03,15,2,15,1.02
2013-1-18,42,35,31,34,24,14,96,67,39,30.56,30.14,9,0,9,0.55
2013-1-19,52,39,29,26,17,9,54,41,36,30.53,30.14,10,2,10,0.00
2013-1-20,60,48,40,32,23,17,39,37,35,30.14,30.00,18,4,18,0.00
2013-1-21,56,43,30,29,20,11,51,40,35,30.11,29.88,21,3,21,0.00
2013-1-22,41,29,20,18,9,1,43,41,39,30.32,29.97,20,6,20,0.00
2013-1-23,37,28,17,15,7,-1,44,42,40,30.38,30.09,17,3,17,0.00
2013-1-24,32,28,17,11,8,-1,44,42,41,30.56,30.00,26,5,26,0.00
2013-1-25,26,21,14,15,4,-4,62,48,42,30.53,30.11,10,1,10,0.00
2013-1-26,35,26,19,17,11,7,69,54,41,30.44,30.11,5,0,5,0.04
2013-1-27,39,30,19,22,14,10,76,54,39,30.62,30.44,9,1,9,0.08
2013-1-28,54,42,30,33,22,11,66,47,36,30.53,30.23,17,3,17,0.04
2013-1-29,72,58,48,42,37,30,76,48,32,30.23,30.11,11,3,11,0.00
2013-1-30,71,67,61,49,42,38,62,41,33,30.11,29.41,27,7,27,0.04
2013-1-31,68,46,33,54,24,12,70,41,37,30.03,29.41,32,9,32,0.35
2013-2-1,39,32,22,16,11,3,43,41,39,32.19,29.85,40,8,40,0.00
2013-2-2,39,29,17,16,8,-1,44,41,39,30.41,30.06,15,2,15,0.00
2013-2-3,47,39,32,22,16,12,46,40,37,30.06,29.88,19,4,19,0.00
2013-2-4,44,36,26,20,14,6,42,40,38,30.17,30.00,13,3,13,0.00
2013-2-5,58,47,40,30,22,17,39,38,35,30.00,29.94,11,3,11,0.00
2013-2-6,58,48,37,30,23,16,42,38,35,30.35,30.00,15,4,15,0.00
2013-2-7,49,40,32,37,22,13,85,50,37,30.41,30.11,12,3,12,0.47
2013-2-8,52,44,39,38,29,16,88,61,36,30.11,29.85,22,7,22,0.67
2013-2-9,50,38,30,25,16,9,42,39,37,30.41,30.03,15,3,15,0.00
2013-2-10,51,38,23,25,15,4,43,39,37,30.50,30.26,10,0,10,0.00
2013-2-11,61,54,43,59,44,20,96,71,39,30.26,29.91,15,2,15,0.12
2013-2-12,59,52,46,33,26,21,42,37,35,30.11,29.94,16,4,16,0.00
2013-2-13,51,46,41,43,32,23,88,60,37,30.00,29.67,17,2,17,0.12
2013-2-14,51,41,32,34,24,17,80,51,37,30.11,29.85,10,2,10,0.04
2013-2-15,61,47,33,33,24,17,60,42,34,30.11,29.97,12,2,12,0.00
2013-2-16,45,37,31,30,25,20,85,65,38,30.03,29.88,11,1,11,0.20
2013-2-17,33,27,22,24,8,3,73,44,41,30.29,29.91,23,3,23,0.04
2013-2-18,50,34,17,25,12,-1,44,40,37,30.41,30.26,8,2,8,0.00
2013-2-19,50,42,34,44,24,13,79,50,39,30.26,29.85,16,4,16,0.08
2013-2-20,50,40,32,24,17,11,50,39,37,30.17,29.97,18,6,18,0.00
2013-2-21,50,37,23,25,14,4,43,40,37,30.32,30.14,13,2,13,0.00
2013-2-22,44,38,33,29,17,12,74,42,38,30.38,30.20,10,2,10,0.04
2013-2-23,43,40,37,42,36,29,94,88,74,30.20,29.88,10,2,10,0.16
2013-2-24,60,47,38,46,32,16,94,61,35,30.11,29.82,16,3,16,0.00
2013-2-25,44,35,27,20,13,7,42,40,38,30.26,30.11,12,1,12,0.00
2013-2-26,56,43,28,54,33,7,95,70,41,30.20,29.64,17,3,17,0.55
2013-2-27,58,48,41,50,31,19,93,54,35,29.79,29.64,17,4,17,0.00
2013-2-28,50,43,36,24,20,14,44,39,37,29.88,29.73,20,6,20,0.00
2013-3-1,46,39,33,22,17,12,42,39,38,29.94,29.85,15,3,15,0.00
2013-3-2,40,37,34,17,15,13,40,40,39,29.94,29.88,10,3,10,0.00
2013-3-3,46,37,29,22,14,8,41,40,38,30.00,29.85,17,6,17,0.55
2013-3-4,50,36,24,25,14,4,42,40,37,30.11,29.97,18,4,18,0.00
2013-3-5,52,40,31,35,22,10,79,49,36,30.11,29.67,13,2,13,0.55
2013-3-6,39,37,34,36,27,15,88,70,41,30.03,29.52,33,10,33,0.55
2013-3-7,49,40,33,24,17,13,45,39,37,30.23,30.03,19,6,19,0.00
2013-3-8,52,41,28,26,18,8,43,39,36,30.29,30.17,28,7,28,0.00
2013-3-9,62,40,30,33,18,10,43,39,34,30.35,30.29,14,3,14,0.00
2013-3-10,67,48,30,37,24,11,51,38,33,30.35,30.26,6,1,6,0.00
2013-3-11,70,55,40,44,32,20,85,42,33,30.29,30.00,13,3,13,0.00
2013-3-12,68,60,47,58,41,22,87,53,33,30.03,29.82,16,6,16,0.67
2013-3-13,55,44,32,28,20,13,51,39,36,30.14,30.00,20,6,20,0.00
2013-3-14,51,38,28,26,16,8,41,39,37,30.23,30.11,18,6,18,0.00
2013-3-15,61,47,32,33,22,11,41,37,34,30.17,29.94,19,4,19,0.00
2013-3-16,76,58,46,46,33,22,74,41,31,29.94,29.64,24,3,24,0.04
2013-3-17,55,44,37,51,30,20,86,59,40,30.26,29.88,11,4,11,0.00
2013-3-18,41,38,36,37,34,29,88,84,72,30.26,29.94,13,3,13,0.24
2013-3-19,67,50,38,45,33,23,96,59,33,30.06,29.85,28,6,28,0.00
2013-3-20,57,46,34,30,22,12,41,38,35,30.11,29.85,16,3,16,0.00
2013-3-21,47,38,29,22,16,8,47,40,37,30.00,29.76,22,7,22,0.00
2013-3-22,52,36,23,26,14,4,42,40,36,30.09,29.97,15,4,15,0.00
2013-3-23,60,44,29,32,20,8,41,38,35,30.09,29.94,13,2,13,0.00
2013-3-24,43,36,34,32,23,12,85,60,38,30.00,29.67,13,3,13,0.51
2013-3-25,48,38,34,34,25,14,89,63,37,29.82,29.61,23,4,23,0.31
2013-3-26,50,38,32,24,15,12,41,39,37,30.11,29.82,15,4,15,0.31
2013-3-27,52,42,33,26,19,12,41,39,36,30.23,30.09,24,7,24,0.31
2013-3-28,56,43,30,29,19,9,42,38,35,30.29,30.17,17,5,17,0.00
2013-3-29,62,46,31,34,21,10,41,38,34,30.32,30.20,14,2,14,0.31
2013-3-30,66,50,34,36,25,13,43,37,33,30.26,30.14,11,1,11,0.31
2013-3-31,65,54,46,54,34,23,93,47,34,30.17,29.85,15,3,15,0.35
2013-4-1,71,59,49,49,36,24,79,44,32,30.03,29.85,23,6,23,0.31
2013-4-2,58,47,33,30,22,12,41,37,35,30.20,30.03,27,5,27,0.00
2013-4-3,59,45,30,32,21,9,41,38,35,30.38,30.20,15,2,15,0.00
2013-4-4,51,41,34,36,22,12,85,49,37,30.44,30.00,11,3,11,0.83
2013-4-5,67,50,39,46,34,22,96,61,33,30.06,29.91,11,5,11,0.16
2013-4-6,64,51,40,35,26,17,40,37,34,30.35,30.06,12,3,12,0.00
2013-4-7,72,54,33,41,28,13,47,36,32,30.32,30.14,17,3,17,0.00
2013-4-8,80,67,54,46,38,29,46,34,30,30.20,30.09,15,4,15,0.00
2013-4-9,86,72,61,50,41,35,43,33,29,30.23,30.11,11,4,11,0.00
2013-4-10,88,75,65,52,43,36,35,31,28,30.14,29.97,15,4,15,0.00
2013-4-11,82,72,64,47,41,36,39,33,30,30.03,29.85,17,5,17,0.00
2013-4-12,84,73,67,62,47,37,80,41,29,29.88,29.67,17,5,17,0.35
2013-4-13,75,63,48,42,34,23,38,34,31,30.06,29.79,15,3,15,0.00
2013-4-14,81,65,47,46,36,23,38,33,30,30.17,30.06,11,2,11,0.00
2013-4-15,68,62,56,49,40,32,79,47,33,30.29,30.14,13,4,13,0.16
2013-4-16,78,65,54,55,43,37,82,49,31,30.35,30.23,9,1,9,0.00
2013-4-17,86,71,61,60,49,40,78,49,29,30.29,30.14,10,3,10,0.08
2013-4-18,80,70,63,59,44,37,74,41,30,30.26,30.11,15,3,15,0.00
2013-4-19,83,71,64,62,48,38,82,47,29,30.11,29.76,24,5,24,0.71
2013-4-20,66,55,44,60,30,21,81,39,33,30.32,29.85,20,5,20,0.51
2013-4-21,61,50,42,33,25,19,40,38,35,30.56,30.32,10,2,10,0.00
2013-4-22,59,48,34,32,25,18,65,41,35,30.56,30.35,13,4,13,0.00
2013-4-23,68,55,48,38,30,25,48,38,33,30.35,30.17,13,4,13,0.00
2013-4-24,77,63,50,44,38,32,74,42,31,30.20,30.00,20,4,20,0.00
2013-4-25,70,61,51,39,33,25,38,34,32,30.32,30.06,14,4,14,0.00
2013-4-26,72,57,41,40,32,25,68,41,32,30.47,30.32,12,2,12,0.00
2013-4-27,73,62,50,41,33,25,38,34,32,30.44,30.32,11,2,11,0.00
2013-4-28,66,59,54,44,32,28,65,37,33,30.35,30.17,9,2,9,0.04
2013-4-29,71,62,55,60,47,38,93,62,32,30.17,30.06,9,1,9,1.06
2013-4-30,67,61,57,56,44,35,92,57,33,30.26,30.09,11,2,11,0.00
2013-5-1,65,60,57,52,40,30,82,51,34,30.41,30.23,17,3,17,0.00
2013-5-2,69,59,51,46,37,30,67,45,33,30.41,30.32,11,1,11,0.00
2013-5-3,69,56,44,49,35,26,84,49,33,30.35,30.29,17,3,17,0.00
2013-5-4,60,53,46,40,32,27,71,46,35,30.32,30.23,11,4,11,0.00
2013-5-5,61,53,44,44,34,27,77,49,35,30.23,30.14,15,4,15,0.00
2013-5-6,70,61,56,64,53,39,96,78,33,30.17,29.97,15,4,15,0.20
2013-5-7,73,65,57,63,46,33,92,56,32,30.06,29.97,10,2,10,0.00
2013-5-8,68,60,51,54,44,34,81,58,33,30.11,30.03,10,1,10,0.08
2013-5-9,81,66,50,59,45,37,92,54,30,30.14,30.06,14,2,14,0.00
2013-5-10,86,74,61,50,42,35,44,32,29,30.17,30.03,15,2,15,0.00
2013-5-11,81,74,66,47,43,39,49,33,30,30.06,29.88,15,4,15,0.04
2013-5-12,71,64,52,57,40,26,75,43,32,30.14,29.91,17,5,17,0.00
2013-5-13,65,54,40,35,28,18,46,36,33,30.29,30.14,17,3,17,0.00
2013-5-14,71,56,38,39,30,19,50,37,32,30.32,30.17,14,2,14,0.00
2013-5-15,88,72,56,52,40,28,36,32,28,30.17,29.94,16,5,16,0.00
2013-5-16,87,77,68,51,44,39,37,31,29,30.09,29.97,15,4,15,0.00
2013-5-17,88,75,65,52,44,37,44,32,28,30.23,30.06,11,2,11,0.00
2013-5-18,73,67,61,62,51,35,82,59,32,30.29,30.20,8,2,8,0.24
2013-5-19,80,69,64,68,58,42,92,72,31,30.29,30.17,17,0,17,0.43
2013-5-20,78,70,67,70,61,45,96,75,33,30.23,30.14,8,0,8,0.71
2013-5-21,86,74,68,70,57,46,95,61,29,30.14,30.03,11,2,11,0.00
2013-5-22,85,76,70,64,50,43,79,43,29,30.11,30.00,13,3,13,0.00
2013-5-23,86,74,67,67,52,44,88,50,29,30.06,29.91,11,1,11,0.04
2013-5-24,70,64,48,62,40,23,79,44,32,30.29,29.91,25,5,25,0.00
2013-5-25,73,56,39,41,30,19,51,37,32,30.35,30.23,18,3,18,0.00
2013-5-26,76,60,43,43,34,24,52,37,31,30.35,30.26,11,2,11,0.00
2013-5-27,78,66,50,45,38,28,55,36,31,30.38,30.26,13,2,13,0.00
2013-5-28,87,73,60,51,42,34,46,34,29,30.35,30.23,15,4,15,0.00
2013-5-29,88,77,66,51,46,42,51,34,29,30.32,30.23,15,4,15,0.00
2013-5-30,88,77,66,52,47,41,57,35,28,30.38,30.26,12,3,12,0.00
2013-5-31,89,78,69,56,49,42,62,37,28,30.32,30.20,12,3,12,0.00
2013-6-1,91,80,69,59,50,42,69,37,28,30.23,30.11,14,4,14,0.00
2013-6-2,87,77,69,56,47,42,58,36,29,30.14,30.03,13,4,13,0.00
2013-6-3,85,75,67,67,56,44,84,56,29,30.06,29.94,15,2,15,0.08
2013-6-4,82,71,63,58,46,35,79,43,30,30.23,30.06,13,2,13,0.00
2013-6-5,85,71,57,53,43,33,71,38,29,30.26,30.14,10,1,10,0.00
2013-6-6,78,70,61,66,47,35,83,47,31,30.17,29.94,13,3,13,0.12
2013-6-7,76,71,69,74,67,57,94,87,54,29.97,29.64,20,3,20,2.01
2013-6-8,84,73,66,70,57,42,96,63,29,30.20,29.91,10,1,10,0.08
2013-6-9,89,77,66,67,52,44,86,46,28,30.29,30.17,10,1,10,0.00
2013-6-10,83,75,72,72,59,48,89,60,31,30.20,30.00,17,2,17,0.75
2013-6-11,85,76,70,64,52,43,77,45,29,30.06,30.00,17,4,17,0.00
2013-6-12,91,80,67,53,50,43,52,35,28,30.06,29.97,13,2,13,0.00
2013-6-13,94,79,68,62,56,43,76,48,27,29.97,29.70,32,2,32,0.12
2013-6-14,80,70,61,60,42,36,73,38,30,30.14,29.82,18,4,18,0.00
2013-6-15,86,73,60,50,44,39,63,37,29,30.23,30.11,11,1,11,0.00
2013-6-16,88,77,67,52,45,40,40,32,29,30.20,30.09,17,4,17,0.00
2013-6-17,87,78,72,61,49,44,65,38,29,30.14,30.06,10,2,10,0.04
2013-6-18,83,74,67,62,55,47,83,53,30,30.09,29.91,15,2,15,0.31
2013-6-19,77,71,65,66,52,42,92,56,31,30.26,30.00,8,2,8,0.00
2013-6-20,82,72,63,62,48,35,86,47,30,30.38,30.26,11,2,11,0.00
2013-6-21,85,71,56,51,43,33,70,38,29,30.38,30.32,11,2,11,0.00
2013-6-22,82,73,66,66,51,43,85,49,30,30.35,30.26,10,2,10,0.16
2013-6-23,88,78,71,72,57,47,94,56,28,30.32,30.23,10,2,10,0.08
2013-6-24,90,80,72,67,55,48,82,47,28,30.32,30.17,12,2,12,0.00
2013-6-25,93,81,72,60,52,47,65,38,27,30.23,30.09,11,3,11,0.00
2013-6-26,92,79,70,66,55,44,84,48,27,32.21,30.00,19,3,19,0.24
2013-6-27,90,77,69,68,58,48,89,58,28,30.03,29.82,17,3,17,0.04
2013-6-28,91,78,69,69,59,45,83,57,28,29.85,29.70,28,3,28,0.16
2013-6-29,88,78,70,72,57,47,93,55,29,29.88,29.73,11,1,11,0.16
2013-6-30,87,79,72,70,57,48,86,50,29,30.03,29.85,13,2,13,0.28
2013-7-1,84,76,70,73,59,48,93,60,30,30.11,29.97,11,2,11,0.47
2013-7-2,79,74,73,72,63,52,91,69,40,30.32,30.11,6,1,6,0.43
2013-7-3,87,79,73,71,60,48,89,57,29,30.35,30.26,9,1,9,0.00
2013-7-4,90,80,74,71,56,47,87,49,28,30.41,30.29,0,0,0,0.00
2013-7-5,91,81,72,72,55,48,90,44,28,30.41,30.29,0,0,0,0.00
2013-7-6,90,81,74,69,54,47,81,42,28,30.38,30.23,0,0,0,0.00
2013-7-7,89,80,72,59,51,46,62,37,28,30.29,30.17,0,0,0,0.04
2013-7-8,88,78,72,73,58,48,93,55,28,30.29,30.17,0,0,0,0.35
2013-7-9,90,80,73,67,56,49,78,46,28,30.26,30.17,0,0,0,0.00
2013-7-10,90,80,73,68,55,45,81,46,28,30.20,30.06,9,0,9,0.20
2013-7-11,81,75,72,73,64,50,91,72,35,30.11,30.03,11,1,11,0.20
2013-7-12,76,72,68,70,60,47,91,69,37,32.21,30.00,12,1,12,0.55
2013-7-13,84,75,70,70,60,49,87,63,31,30.35,30.14,13,1,13,0.51
2013-7-14,89,79,70,77,59,48,94,56,28,30.44,30.35,8,0,8,0.00
2013-7-15,94,82,71,71,56,48,84,47,27,30.44,30.35,6,1,6,0.00
2013-7-16,96,84,73,61,54,48,63,38,27,30.38,30.29,8,1,8,0.00
2013-7-17,95,84,74,72,57,48,81,43,27,30.35,30.20,9,1,9,0.00
2013-7-18,96,84,75,72,56,49,78,42,27,30.26,30.17,6,0,6,0.00
2013-7-19,93,84,76,66,56,49,70,40,27,30.20,30.09,13,3,13,0.00
2013-7-20,90,82,76,56,53,49,48,37,28,30.11,30.03,14,3,14,0.00
2013-7-21,90,79,72,65,55,46,78,46,28,30.11,30.03,15,2,15,0.16
2013-7-22,90,78,71,74,61,49,94,61,28,30.09,29.94,15,1,15,0.39
2013-7-23,90,84,76,58,53,49,54,36,28,29.97,29.85,6,1,6,0.00
2013-7-24,90,80,73,60,53,44,63,41,28,30.00,29.85,20,2,20,0.00
2013-7-25,80,73,66,64,50,41,79,48,30,30.17,29.97,13,3,13,0.47
2013-7-26,86,73,62,55,48,41,73,44,29,30.23,30.14,9,1,9,0.00
2013-7-27,85,76,68,64,51,46,80,44,29,30.20,30.06,11,1,11,0.00
2013-7-28,88,78,71,64,53,45,76,45,29,30.11,30.03,17,2,17,0.00
2013-7-29,87,76,66,66,51,40,87,46,29,30.19,29.80,13,3,13,0.35
2013-7-30,87,74,62,57,48,41,73,42,29,30.25,30.16,0,0,0,0.00
2013-7-31,84,74,68,67,55,44,86,55,30,30.19,30.04,13,1,13,0.04
2013-8-1,86,76,70,72,58,43,95,61,29,30.04,29.86,13,2,13,0.35
2013-8-2,89,77,68,68,54,44,87,51,28,30.04,29.92,11,1,11,0.00
2013-8-3,87,77,71,62,53,46,70,43,29,30.04,29.95,14,1,14,0.00
2013-8-4,84,75,67,66,51,39,83,47,29,30.07,29.92,15,2,15,0.00
2013-8-5,82,72,61,54,46,39,70,40,30,30.13,30.04,8,0,8,0.00
2013-8-6,82,74,68,58,46,41,60,38,30,30.10,30.04,13,2,13,0.00
2013-8-7,88,78,71,65,53,44,80,46,29,30.13,30.04,14,2,14,0.00
2013-8-8,89,80,73,68,53,48,80,42,28,30.10,30.04,9,1,9,0.00
2013-8-9,93,83,75,66,54,47,70,39,27,30.07,29.98,16,4,16,0.00
2013-8-10,93,82,76,69,54,46,80,41,27,30.13,30.01,11,3,11,0.16
2013-8-11,89,79,74,74,62,49,91,62,29,30.16,30.04,8,0,8,0.00
2013-8-12,92,82,74,74,59,48,90,51,27,30.07,29.98,8,1,8,0.16
2013-8-13,90,79,73,71,58,47,88,53,28,29.98,29.80,13,2,13,0.16
2013-8-14,76,70,59,68,45,36,79,44,31,30.13,29.83,13,2,13,0.16
2013-8-15,78,65,56,52,43,37,79,48,31,30.19,30.10,9,0,9,0.00
2013-8-16,74,66,55,55,44,39,82,48,31,30.22,30.13,9,0,9,0.16
2013-8-17,75,68,60,62,50,43,79,56,32,30.22,30.16,10,1,10,0.16
2013-8-18,72,69,66,68,60,47,94,75,42,30.25,30.16,10,1,10,0.20
2013-8-19,76,70,66,66,58,49,88,68,39,30.25,30.13,6,0,6,0.16
2013-8-20,85,75,68,73,57,46,92,59,29,30.22,30.13,5,0,5,0.16
2013-8-21,88,77,71,75,62,49,92,63,28,30.25,30.13,4,0,4,0.16
2013-8-22,90,80,72,73,56,44,93,51,28,30.16,30.01,10,1,10,0.16
2013-8-23,88,75,67,66,53,44,81,48,28,30.13,29.98,22,2,22,0.16
2013-8-24,84,72,60,59,48,39,85,48,29,30.34,30.13,15,1,15,0.16
2013-8-25,82,69,59,61,45,36,84,45,30,30.42,30.31,12,1,12,0.16
2013-8-26,86,70,53,52,42,36,73,39,29,30.37,30.13,11,1,11,0.16
2013-8-27,91,77,66,53,46,38,44,33,28,30.13,29.98,11,1,11,0.16
2013-8-28,79,76,72,67,55,48,72,48,33,30.01,29.86,9,1,9,0.16
2013-8-29,77,73,70,62,54,49,59,52,41,30.07,29.89,4,0,4,0.00
2013-8-30,90,76,64,65,51,44,81,46,28,30.10,29.98,8,0,8,0.00
2013-8-31,91,79,69,61,50,45,74,39,28,30.01,29.89,13,2,13,0.00
2013-9-1,92,79,72,66,54,46,78,45,27,29.92,29.80,15,2,15,0.00
2013-9-2,92,80,71,68,56,46,85,50,27,29.89,29.83,13,1,13,0.00
2013-9-3,88,77,70,64,54,47,68,45,28,29.98,29.83,13,0,13,0.08
2013-9-4,86,74,67,65,48,38,82,42,29,30.13,29.98,9,0,9,0.00
2013-9-5,90,75,62,61,49,39,79,43,28,30.13,30.04,9,1,9,0.00
2013-9-6,83,71,61,48,41,34,50,33,29,30.22,30.10,8,1,8,0.00
2013-9-7,84,70,56,57,44,38,77,42,29,30.16,30.01,10,1,10,0.00
2013-9-8,90,76,63,55,46,41,65,36,28,30.04,29.92,9,1,9,0.00
2013-9-9,86,76,69,59,49,45,62,40,29,30.19,30.04,9,1,9,0.00
2013-9-10,92,80,70,66,55,45,81,47,27,30.25,30.16,13,1,13,0.00
2013-9-11,94,80,71,55,49,42,50,34,27,30.22,30.07,13,2,13,0.00
2013-9-12,93,80,70,54,49,43,52,35,27,30.10,29.83,13,2,13,0.00
2013-9-13,84,75,63,48,44,34,43,33,29,29.95,29.78,15,2,15,0.00
2013-9-14,77,65,57,44,36,30,38,34,31,30.19,29.95,15,2,15,0.00
2013-9-15,82,65,47,54,38,28,83,39,29,30.28,30.13,10,1,10,0.00
2013-9-16,86,72,63,57,44,36,64,38,29,30.25,30.10,16,2,16,0.00
2013-9-17,75,63,53,50,38,29,74,41,31,30.37,30.25,13,2,13,0.00
2013-9-18,75,59,45,49,35,28,84,42,31,30.34,27.56,8,0,8,0.00
2013-9-19,78,65,52,52,39,31,74,38,31,30.22,30.13,8,0,8,0.00
2013-9-20,80,70,63,48,42,36,55,38,30,30.13,30.01,9,0,9,0.00
2013-9-21,74,68,63,64,54,46,83,64,38,30.01,29.78,17,1,17,0.28
2013-9-22,78,68,57,63,48,32,93,54,31,29.95,29.78,17,2,17,0.04
2013-9-23,72,61,53,40,34,30,51,38,32,30.10,29.95,14,1,14,0.00
2013-9-24,78,63,52,45,37,30,54,38,31,30.13,29.98,10,0,10,0.00
2013-9-25,75,63,51,58,40,34,87,46,31,30.01,29.89,13,0,13,0.00
2013-9-26,78,67,59,52,42,36,74,41,31,30.01,29.92,11,2,11,0.00
2013-9-27,61,60,60,34,33,33,36,36,35,30.19,30.19,3,0,3,0.00
2013-9-28,71,60,50,57,39,33,92,47,32,30.28,30.22,10,1,10,0.00
2013-9-29,75,62,51,58,40,34,93,47,31,30.22,30.07,11,1,11,0.00
2013-9-30,76,62,50,61,41,31,86,49,31,30.13,30.01,8,0,8,0.00
2013-10-1,85,68,54,49,41,32,62,38,29,30.13,30.04,9,1,9,0.00
2013-10-2,87,71,59,55,44,37,72,39,29,30.16,30.07,10,1,10,0.00
2013-10-3,87,72,60,61,46,39,79,41,29,30.16,30.07,10,0,10,0.00
2013-10-4,89,75,66,52,44,39,45,34,28,30.16,30.04,9,1,9,0.00
2013-10-5,91,76,64,59,48,42,72,38,28,30.13,30.04,8,1,8,0.00
2013-10-6,86,75,67,58,47,41,67,38,29,30.10,29.98,12,2,12,0.00
2013-10-7,76,71,65,63,54,43,80,57,38,30.04,29.89,15,2,15,0.28
2013-10-8,65,59,56,43,32,29,45,35,34,30.25,30.04,15,3,15,0.28
2013-10-9,60,57,55,52,40,30,86,54,35,30.25,30.10,17,5,17,0.28
2013-10-10,60,57,55,51,47,40,83,71,50,30.10,29.95,19,7,19,0.00
2013-10-11,65,61,59,58,52,41,95,75,43,30.01,29.92,15,3,15,0.00
2013-10-12,68,64,62,66,61,46,98,89,48,30.13,29.95,11,2,11,0.04
2013-10-13,67,64,62,67,63,61,98,97,81,30.25,30.10,11,2,11,0.12
2013-10-14,65,61,56,63,57,43,98,86,45,30.28,30.22,14,1,14,0.04
2013-10-15,71,61,51,60,48,38,98,68,33,30.22,30.10,10,1,10,0.00
2013-10-16,71,66,62,66,54,42,98,69,35,30.10,29.98,4,0,4,0.00
2013-10-17,73,70,66,59,49,41,76,49,32,29.95,29.83,11,2,11,0.00
2013-10-18,70,61,51,62,39,30,89,45,32,30.07,29.89,10,0,10,0.00
2013-10-19,66,60,53,62,53,39,91,79,59,30.01,29.83,6,0,6,0.04
2013-10-20,63,54,43,55,35,24,87,50,34,30.13,29.92,12,0,12,0.00
2013-10-21,66,52,35,49,32,26,89,52,33,30.19,30.07,9,0,9,0.00
2013-10-22,63,61,59,43,40,35,55,46,35,29.89,29.83,5,0,5,0.00
2013-10-23,59,53,45,50,33,21,74,47,35,29.98,29.75,16,2,16,0.00
2013-10-24,56,46,36,29,22,15,48,39,35,30.19,29.98,15,2,15,0.00
2013-10-25,56,48,33,29,23,13,50,38,35,30.37,30.19,13,2,13,0.00
2013-10-26,58,44,28,31,21,11,55,40,35,30.34,30.04,15,2,15,0.00
2013-10-27,66,54,42,36,28,19,40,36,33,30.16,30.04,13,2,13,0.00
2013-10-28,70,55,39,39,30,18,57,38,32,30.28,30.13,8,1,8,0.00
2013-10-29,71,60,53,40,35,30,51,39,32,30.34,30.25,6,0,6,0.00
2013-10-30,70,60,53,45,37,29,55,41,32,30.34,30.19,10,1,10,0.00
2013-10-31,73,66,59,43,40,37,54,39,32,30.22,29.92,13,3,13,0.00
2013-11-1,73,69,66,62,50,39,82,53,32,29.92,29.69,19,4,19,0.12
2013-11-2,70,62,55,60,42,28,82,52,32,29.95,29.72,15,2,15,0.00
2013-11-3,62,50,38,33,25,16,41,37,34,30.40,29.95,13,2,13,0.00
2013-11-4,53,44,36,27,20,14,40,38,36,30.54,30.40,10,1,10,0.00
2013-11-5,60,48,36,32,24,14,41,38,35,30.54,30.45,12,2,12,0.00
2013-11-6,70,56,43,52,34,24,76,43,32,30.45,30.13,8,0,8,0.00
2013-11-7,70,62,48,62,46,23,96,62,32,30.13,29.92,15,4,15,0.00
2013-11-8,56,44,34,29,20,12,41,38,35,30.31,30.13,15,2,15,0.00
2013-11-9,57,43,28,30,20,8,50,39,35,30.37,30.16,11,2,11,0.00
2013-11-10,70,55,43,39,28,19,38,36,32,30.25,30.04,19,4,19,0.00
2013-11-11,59,46,33,31,22,12,41,38,35,30.34,30.13,10,1,10,0.00
2013-11-12,53,44,32,27,20,10,41,38,36,30.40,29.98,22,4,22,0.00
2013-11-13,45,33,23,21,12,4,42,40,38,30.48,30.37,17,2,17,0.00
2013-11-14,60,44,30,32,20,9,41,38,35,30.42,30.28,13,3,13,0.00
2013-11-15,62,50,34,34,24,12,40,37,34,30.31,30.19,11,2,11,0.00
2013-11-16,59,55,51,51,40,28,81,59,35,30.28,30.22,5,0,5,0.08
2013-11-17,69,64,54,60,43,36,91,49,33,30.19,29.89,13,2,13,0.08
2013-11-18,70,63,50,64,42,24,89,48,32,29.98,29.83,20,4,20,0.08
2013-11-19,54,46,36,28,21,14,40,38,36,30.34,29.98,15,2,15,0.00
2013-11-20,52,43,37,26,19,15,40,38,36,30.48,30.31,12,2,12,0.04
2013-11-21,61,48,38,33,24,17,47,39,35,30.51,30.40,9,1,9,0.00
2013-11-22,70,59,47,43,34,28,50,40,32,30.40,30.07,17,3,17,0.04
2013-11-23,62,55,41,46,31,18,58,40,34,30.16,30.04,15,4,15,0.04
2013-11-24,41,31,20,18,10,1,43,41,39,30.51,30.16,24,5,24,0.04
2013-11-25,41,30,18,18,9,-1,44,41,39,30.57,30.37,7,1,7,0.00
2013-11-26,64,42,33,63,30,12,97,64,39,30.40,29.60,16,2,16,1.38
2013-11-27,48,43,30,45,38,9,96,82,41,30.13,29.54,24,4,24,0.67
2013-11-28,42,31,22,19,10,3,43,41,39,30.45,30.13,13,1,13,0.00
2013-11-29,47,35,27,22,13,7,42,40,37,30.63,30.42,13,1,13,0.67
2013-11-30,47,34,24,22,12,5,45,41,37,30.63,30.37,10,1,10,0.67
2013-12-1,55,37,25,29,16,8,55,42,36,30.37,30.04,9,1,9,0.67
2013-12-2,58,42,29,30,19,9,57,41,35,30.04,29.83,6,0,6,0.67
2013-12-3,61,47,32,33,24,14,61,41,34,30.01,29.89,10,1,10,0.67
2013-12-4,58,54,50,52,42,26,84,65,37,30.10,30.01,6,0,6,0.67
2013-12-5,67,62,56,66,56,44,98,82,44,30.13,30.04,13,2,13,0.67
2013-12-6,77,68,50,59,45,30,80,46,31,30.10,29.98,23,5,23,0.67
2013-12-7,50,43,38,40,25,16,81,51,37,30.48,30.07,17,4,17,0.67
2013-12-8,38,34,32,30,22,12,87,62,39,30.48,30.28,12,2,12,0.67
2013-12-9,45,39,34,44,37,30,96,92,87,30.28,30.04,12,1,12,0.24
2013-12-10,46,40,31,44,31,10,95,74,39,30.28,29.95,17,2,17,0.67
2013-12-11,47,36,26,22,14,6,42,40,37,30.42,30.25,10,1,10,0.04
2013-12-12,42,34,27,19,12,6,41,40,39,30.40,30.25,10,1,10,0.00
2013-12-13,50,37,26,25,15,6,42,39,37,30.37,30.25,11,2,11,0.00
2013-12-14,46,40,38,36,24,16,86,54,38,30.28,29.78,9,1,9,0.71
2013-12-15,52,42,35,44,28,13,95,62,36,30.04,29.72,13,4,13,0.00
2013-12-16,50,39,31,25,17,10,41,39,37,30.16,30.01,10,2,10,0.00
2013-12-17,60,44,33,32,22,12,61,42,35,30.10,29.86,15,2,15,0.08
2013-12-18,46,38,32,29,16,12,68,41,38,30.25,30.01,15,3,15,0.00
2013-12-19,61,46,33,33,22,12,41,38,34,30.28,30.19,13,3,13,0.00
2013-12-20,66,54,41,36,28,18,40,36,33,30.22,30.10,11,3,11,0.00
2013-12-21,71,62,53,47,35,29,48,38,32,30.13,30.04,13,3,13,0.00
2013-12-22,77,68,63,55,47,40,71,48,31,30.13,30.01,17,5,17,0.35
2013-12-23,67,61,46,62,52,23,90,72,39,30.16,30.01,13,3,13,0.87
2013-12-24,46,38,28,24,16,7,42,40,38,30.42,30.16,18,4,18,0.00
2013-12-25,37,27,20,15,7,1,43,42,40,30.54,30.40,10,1,10,0.00
2013-12-26,51,33,20,26,12,1,47,41,37,30.40,30.22,13,1,13,0.00
2013-12-27,52,37,26,26,15,6,42,39,37,30.45,30.34,8,0,8,0.00
2013-12-28,58,44,33,30,20,12,41,38,35,30.40,30.19,12,1,12,0.04
2013-12-29,58,48,43,57,37,20,96,69,40,30.19,29.69,15,3,15,1.30
2013-12-30,53,45,40,27,23,17,57,41,36,30.16,29.95,10,1,10,1.30
2013-12-31,50,41,33,26,19,12,55,41,37,30.34,30.13,17,2,17,0.00
2014-1-1,47,36,28,22,14,8,42,40,37,30.40,29.85,5,0,5,0.00
2014-1-2,48,40,31,34,20,10,76,46,37,29.85,29.29,8,1,8,0.43